Newseas Pearl — H9JR — position and weather

sailwx.info

Track history (hours):
 
Tides and Currents Weather Stations Pressure Air Temp Water Temp Dewpoint Dewpoint Depression Visibility Wind Speed Wind Dir Waves Ship Positions

Newseas Pearl

Last reported at 2018-Feb-13 21:11 UTC. Time now 2018-Feb-20 02:12 UTC.
Position S 33°00' W 071°45'.

Length 190 m; draft 11.9 m.

Type: Cargo ship. MMSI: 355104000.

Date/timePositionNaut miles runAvg speedWind from/ knotsBaromVisibWave heightAir tempDewpointWater temp
2018-Feb-13 21:11S 33°00' W 071°45'212.0
2018-Feb-13 20:59S 32°59' W 071°43'5 9.9
2018-Feb-13 20:30S 32°57' W 071°38'3 5.9
2018-Feb-13 19:59S 32°60' W 071°36'1 0.4
2018-Feb-13 16:45S 33°01' W 071°35'0 0.1
2018-Feb-13 16:30S 33°01' W 071°35'0 0.0
2018-Feb-13 15:59S 33°01' W 071°35'0 0.0
2018-Feb-13 15:21S 33°01' W 071°35'0 0.1
2018-Feb-13 14:51S 33°01' W 071°35'0 0.0
2018-Feb-13 14:27S 33°01' W 071°35'0 0.0
2018-Feb-13 14:00S 33°01' W 071°35'0 0.0
2018-Feb-13 13:27S 33°01' W 071°35'0 0.0
2018-Feb-13 13:00S 33°01' W 071°35'0 0.0
2018-Feb-13 12:29S 33°01' W 071°35'0 0.0
2018-Feb-13 12:00S 33°01' W 071°35'0 0.0
2018-Feb-13 11:30S 33°01' W 071°35'0 0.1
2018-Feb-13 11:00S 33°01' W 071°35'0 0.0
2018-Feb-13 10:30S 33°01' W 071°35'0 0.0
2018-Feb-13 10:00S 33°01' W 071°35'0 0.0
2018-Feb-13 09:30S 33°01' W 071°35'0 0.0
2018-Feb-13 08:56S 33°01' W 071°35'0 0.1
2018-Feb-13 08:24S 33°01' W 071°35'1 2.4
2018-Feb-13 08:00S 33°01' W 071°36'2 3.5
2018-Feb-13 07:29S 32°60' W 071°37'5 9.6
2018-Feb-13 07:00S 32°55' W 071°39'612.3
2018-Feb-13 06:28S 32°49' W 071°42'612.6
2018-Feb-13 06:00S 32°44' W 071°45'  
Track history (hours):
 
Tides and Currents Weather Stations Pressure Air Temp Water Temp Dewpoint Dewpoint Depression Visibility Wind Speed Wind Dir Waves Ship Positions

Newseas Pearl

Last reported at 2018-Feb-13 21:11 UTC. Time now 2018-Feb-20 02:12 UTC.
Position S 33°00' W 071°45'.

Length 190 m; draft 11.9 m.

Type: Cargo ship. MMSI: 355104000.

Date/timePositionNaut miles runAvg speedWind from/ knotsBaromVisibWave heightAir tempDewpointWater temp
2018-Feb-13 21:11S 33°00' W 071°45'212.0
2018-Feb-13 20:59S 32°59' W 071°43'5 9.9
2018-Feb-13 20:30S 32°57' W 071°38'3 5.9
2018-Feb-13 19:59S 32°60' W 071°36'1 0.4
2018-Feb-13 16:45S 33°01' W 071°35'0 0.1
2018-Feb-13 16:30S 33°01' W 071°35'0 0.0
2018-Feb-13 15:59S 33°01' W 071°35'0 0.0
2018-Feb-13 15:21S 33°01' W 071°35'0 0.1
2018-Feb-13 14:51S 33°01' W 071°35'0 0.0
2018-Feb-13 14:27S 33°01' W 071°35'0 0.0
2018-Feb-13 14:00S 33°01' W 071°35'0 0.0
2018-Feb-13 13:27S 33°01' W 071°35'0 0.0
2018-Feb-13 13:00S 33°01' W 071°35'0 0.0
2018-Feb-13 12:29S 33°01' W 071°35'0 0.0
2018-Feb-13 12:00S 33°01' W 071°35'0 0.0
2018-Feb-13 11:30S 33°01' W 071°35'0 0.1
2018-Feb-13 11:00S 33°01' W 071°35'0 0.0
2018-Feb-13 10:30S 33°01' W 071°35'0 0.0
2018-Feb-13 10:00S 33°01' W 071°35'0 0.0
2018-Feb-13 09:30S 33°01' W 071°35'0 0.0
2018-Feb-13 08:56S 33°01' W 071°35'0 0.1
2018-Feb-13 08:24S 33°01' W 071°35'1 2.4
2018-Feb-13 08:00S 33°01' W 071°36'2 3.5
2018-Feb-13 07:29S 32°60' W 071°37'5 9.6
2018-Feb-13 07:00S 32°55' W 071°39'612.3
2018-Feb-13 06:28S 32°49' W 071°42'612.6
2018-Feb-13 06:00S 32°44' W 071°45'  

Dump ship's entire track history